createdAt,value
2022-10-04T00:02:34.901Z,100222.41
2022-10-04T00:07:41.956Z,100219.16
2022-10-04T00:12:48.672Z,100215.63
2022-10-04T00:18:02.625Z,100207.81
2022-10-04T00:23:26.629Z,100210.44
2022-10-04T00:28:43.850Z,100196.66
2022-10-04T00:33:47.965Z,100191.44
2022-10-04T00:39:03.131Z,100186.28
2022-10-04T00:44:12.089Z,100177.44
2022-10-04T00:49:16.317Z,100188.03
2022-10-04T00:54:20.753Z,100188.75
2022-10-04T00:59:30.858Z,100189.78
2022-10-04T01:04:39.853Z,100180.22
2022-10-04T01:09:47.948Z,100177.56
2022-10-04T01:14:56.804Z,100182.81
2022-10-04T01:19:59.813Z,100163.03
2022-10-04T01:25:04.714Z,100170.84
2022-10-04T01:30:10.231Z,100180.47
2022-10-04T01:35:14.392Z,100181.19
2022-10-04T01:40:18.683Z,100177.88
2022-10-04T01:45:25.370Z,100187.28
2022-10-04T01:50:30.993Z,100183.88
2022-10-04T01:55:37.115Z,100192.28
2022-10-04T02:00:42.580Z,100195.06
2022-10-04T02:05:49.214Z,100200.09
2022-10-04T02:10:54.991Z,100199.34
2022-10-04T02:15:59.191Z,100208.22
2022-10-04T02:21:02.340Z,100199.47
2022-10-04T02:26:07.200Z,100203.88
2022-10-04T02:31:28.517Z,100197.88
2022-10-04T02:36:33.312Z,100193.41
2022-10-04T02:41:39.463Z,100194.28
2022-10-04T02:46:46.259Z,100207.22
2022-10-04T02:51:53.162Z,100211.69
2022-10-04T02:56:59.038Z,100200.25
2022-10-04T03:02:02.775Z,100203.66
2022-10-04T03:07:07.804Z,100201.78
2022-10-04T03:12:13.834Z,100198.44
2022-10-04T03:17:17.869Z,100207.81
2022-10-04T03:22:20.940Z,100204.59
2022-10-04T03:27:28.719Z,100202.06
2022-10-04T03:32:32.319Z,100215.84
2022-10-04T03:37:36.704Z,100210.72
2022-10-04T03:42:41.697Z,100216.84
2022-10-04T03:47:45.591Z,100216.91
2022-10-04T03:52:51.242Z,100218.47
2022-10-04T03:57:55.653Z,100224.53
2022-10-04T04:03:01.865Z,100228.84
2022-10-04T04:08:08.256Z,100225.34
2022-10-04T04:13:21.332Z,100233.00
2022-10-04T04:18:25.333Z,100223.47
2022-10-04T04:23:31.171Z,100237.31
2022-10-04T04:28:40.650Z,100246.06
2022-10-04T04:33:45.340Z,100252.09
2022-10-04T04:39:05.835Z,100251.09
2022-10-04T04:44:17.874Z,100252.84
2022-10-04T04:49:20.892Z,100252.03
2022-10-04T04:54:25.764Z,100257.25
2022-10-04T04:59:30.173Z,100272.06
2022-10-04T05:04:33.100Z,100270.97
2022-10-04T05:09:37.306Z,100285.84
2022-10-04T05:14:48.435Z,100286.78
2022-10-04T05:19:52.397Z,100280.53
2022-10-04T05:24:58.002Z,100301.38
2022-10-04T05:30:06.285Z,100310.09
2022-10-04T05:35:16.127Z,100315.97
2022-10-04T05:40:28.888Z,100323.78
2022-10-04T05:45:33.238Z,100330.69
2022-10-04T05:50:40.647Z,100338.50
2022-10-04T05:55:51.264Z,100343.56
2022-10-04T06:01:10.621Z,100344.38
2022-10-04T06:06:17.560Z,100348.53
2022-10-04T06:11:30.213Z,100345.91
2022-10-04T06:16:39.779Z,100356.56
2022-10-04T06:21:48.407Z,100355.16
2022-10-04T06:26:54.865Z,100362.09
2022-10-04T06:32:14.411Z,100372.47
2022-10-04T06:37:28.523Z,100361.22
2022-10-04T06:42:49.215Z,100381.06
2022-10-04T06:48:01.027Z,100387.38
2022-10-04T06:53:20.660Z,100417.78
2022-10-04T06:58:33.599Z,100400.94
2022-10-04T07:03:40.627Z,100392.16
2022-10-04T07:08:48.844Z,100420.00
2022-10-04T07:13:56.571Z,100425.16
2022-10-04T07:19:08.421Z,100430.38
2022-10-04T07:24:13.571Z,100445.13
2022-10-04T07:29:23.912Z,100438.19
2022-10-04T07:34:30.785Z,100441.34
2022-10-04T07:39:35.482Z,100438.38
2022-10-04T07:44:39.811Z,100440.53
2022-10-04T07:49:44.177Z,100457.00
2022-10-04T07:54:51.563Z,100453.22
2022-10-04T07:59:58.813Z,100459.34
2022-10-04T08:05:11.086Z,100465.03
2022-10-04T08:10:22.646Z,100466.00
2022-10-04T08:15:36.950Z,100481.38
2022-10-04T08:20:46.228Z,100470.91
2022-10-04T08:25:54.935Z,100461.81
2022-10-04T08:31:05.382Z,100466.91
2022-10-04T08:36:17.184Z,100472.03
2022-10-04T08:41:47.242Z,100474.53
2022-10-04T08:47:15.293Z,100478.72
2022-10-04T08:52:35.072Z,100487.25
2022-10-04T08:57:52.190Z,100491.38
2022-10-04T09:03:10.146Z,100503.44
2022-10-04T09:08:23.522Z,100503.50
2022-10-04T09:13:35.229Z,100516.47
2022-10-04T09:18:52.129Z,100516.59
2022-10-04T09:24:07.901Z,100518.25
2022-10-04T09:29:24.265Z,100517.09
2022-10-04T09:34:37.197Z,100524.84
2022-10-04T09:39:52.345Z,100531.97
2022-10-04T09:45:15.812Z,100538.94
2022-10-04T09:50:32.029Z,100547.88
2022-10-04T09:55:42.890Z,100554.13
2022-10-04T10:00:51.670Z,100558.41
2022-10-04T10:06:08.450Z,100548.81
2022-10-04T10:11:32.519Z,100562.53
2022-10-04T10:16:44.122Z,100565.81
2022-10-04T10:21:52.611Z,100566.44
2022-10-04T10:27:03.611Z,100567.09
2022-10-04T10:32:21.753Z,100578.88
2022-10-04T10:37:35.780Z,100571.41
2022-10-04T10:42:52.092Z,100588.34
2022-10-04T10:48:01.800Z,100580.59
2022-10-04T10:53:29.273Z,100575.91
2022-10-04T10:58:56.164Z,100580.03
2022-10-04T11:04:08.672Z,100581.38
2022-10-04T11:09:38.667Z,100594.97
2022-10-04T11:14:56.441Z,100605.97
2022-10-04T11:20:11.659Z,100599.66
2022-10-04T11:25:25.435Z,100606.97
2022-10-04T11:30:39.243Z,100624.53
2022-10-04T11:35:58.240Z,100620.06
2022-10-04T11:41:10.923Z,100626.16
2022-10-04T11:46:21.699Z,100634.91
2022-10-04T11:51:57.578Z,100629.38
2022-10-04T11:57:16.043Z,100629.03
2022-10-04T12:02:37.787Z,100622.03
2022-10-04T12:07:51.995Z,100631.00
2022-10-04T12:13:06.331Z,100642.66
2022-10-04T12:18:17.903Z,100646.75
2022-10-04T12:23:42.365Z,100651.88
2022-10-04T12:28:52.979Z,100654.03
2022-10-04T12:34:09.009Z,100654.69
2022-10-04T12:39:20.717Z,100665.63
2022-10-04T12:44:29.376Z,100665.22
2022-10-04T12:49:38.146Z,100687.84
2022-10-04T12:54:44.693Z,100695.97
2022-10-04T12:59:54.915Z,100686.09
2022-10-04T13:05:03.224Z,100698.34
2022-10-04T13:10:26.011Z,100702.09
2022-10-04T13:17:24.889Z,100694.72
2022-10-04T13:21:00.324Z,100699.44
2022-10-04T13:26:15.413Z,100709.59
2022-10-04T13:31:24.567Z,100708.94
2022-10-04T13:36:32.081Z,100708.09
2022-10-04T13:41:45.602Z,100714.16
2022-10-04T13:47:00.933Z,100719.97
2022-10-04T13:52:32.835Z,100723.03
2022-10-04T13:57:43.761Z,100726.91
2022-10-04T14:02:57.128Z,100730.22
2022-10-04T14:08:12.449Z,100727.78
2022-10-04T14:13:36.904Z,100733.28
2022-10-04T14:19:00.856Z,100739.09
2022-10-04T14:24:22.453Z,100741.94
2022-10-04T14:29:46.459Z,100751.72
2022-10-04T14:34:58.243Z,100754.34
2022-10-04T14:40:11.322Z,100771.81
2022-10-04T14:45:21.683Z,100774.41
2022-10-04T14:50:28.355Z,100784.13
2022-10-04T14:55:38.259Z,100792.13
2022-10-04T15:00:57.270Z,100781.63
2022-10-04T15:06:06.623Z,100794.63
2022-10-04T15:11:12.186Z,100794.84
2022-10-04T15:16:21.742Z,100804.59
2022-10-04T15:21:33.950Z,100801.34
2022-10-04T15:26:49.995Z,100806.63
2022-10-04T15:32:04.279Z,100814.38
2022-10-04T15:37:15.215Z,100823.19
2022-10-04T15:42:24.952Z,100830.34
2022-10-04T15:47:31.021Z,100832.06
2022-10-04T15:52:44.205Z,100844.22
2022-10-04T15:58:03.915Z,100845.41
2022-10-04T16:03:18.171Z,100862.06
2022-10-04T16:08:27.080Z,100865.63
2022-10-04T16:13:38.806Z,100868.38
2022-10-04T16:18:46.032Z,100880.69
2022-10-04T16:23:49.803Z,100880.66
2022-10-04T16:29:13.657Z,100892.94
2022-10-04T16:34:28.252Z,100884.94
2022-10-04T16:39:54.161Z,100896.34
2022-10-04T16:45:00.928Z,100901.94
2022-10-04T16:50:05.623Z,100907.25
2022-10-04T16:55:22.251Z,100910.78
2022-10-04T17:00:35.153Z,100916.00
2022-10-04T17:05:47.463Z,100915.97
2022-10-04T17:11:17.406Z,100923.09
2022-10-04T17:16:23.776Z,100925.78
2022-10-04T17:21:32.912Z,100921.69
2022-10-04T17:26:51.829Z,100933.19
2022-10-04T17:31:58.241Z,100939.13
2022-10-04T17:37:05.553Z,100938.38
2022-10-04T17:42:15.371Z,100937.56
2022-10-04T17:47:23.943Z,100936.69
2022-10-04T17:52:52.576Z,100941.13
2022-10-04T17:58:00.762Z,100952.63
2022-10-04T18:03:09.691Z,100952.63
2022-10-04T18:08:17.858Z,100958.78
2022-10-04T18:13:25.092Z,100967.47
2022-10-04T18:18:30.308Z,100964.84
2022-10-04T18:23:39.404Z,100971.03
2022-10-04T18:28:43.521Z,100981.59
2022-10-04T18:33:50.386Z,100979.16
2022-10-04T18:39:05.329Z,100987.66
2022-10-04T18:44:15.453Z,100995.53
2022-10-04T18:49:21.761Z,101000.03
2022-10-04T18:54:30.814Z,100998.31
2022-10-04T18:59:58.979Z,100999.28
2022-10-04T19:05:10.327Z,101018.50
2022-10-04T19:10:26.649Z,101022.03
2022-10-04T19:15:39.489Z,101025.47
2022-10-04T19:20:46.785Z,101031.69
2022-10-04T19:26:26.255Z,101031.03
2022-10-04T19:31:22.413Z,101023.13
2022-10-04T19:36:46.474Z,101034.41
2022-10-04T19:41:55.152Z,101037.88
2022-10-04T19:47:01.095Z,101042.31
2022-10-04T19:52:16.318Z,101047.59
2022-10-04T19:57:25.667Z,101048.44
2022-10-04T20:02:28.862Z,101057.16
2022-10-04T20:07:31.954Z,101059.81
2022-10-04T20:12:38.508Z,101069.47
2022-10-04T20:17:42.234Z,101078.06
2022-10-04T20:22:55.401Z,101072.94
2022-10-04T20:28:03.867Z,101085.97
2022-10-04T20:33:07.023Z,101088.63
2022-10-04T20:38:31.853Z,101092.13
2022-10-04T20:43:54.010Z,101103.50
2022-10-04T20:48:57.048Z,101101.69
2022-10-04T20:54:00.256Z,101099.97
2022-10-04T20:59:05.194Z,101104.34
2022-10-04T21:04:15.344Z,101109.59
2022-10-04T21:09:18.491Z,101106.06
2022-10-04T21:14:26.545Z,101110.47
2022-10-04T21:19:53.530Z,101109.59
2022-10-04T21:24:57.354Z,101118.22
2022-10-04T21:30:02.427Z,101120.00
2022-10-04T21:35:06.075Z,101125.22
2022-10-04T21:40:09.533Z,101126.13
2022-10-04T21:45:14.084Z,101108.78
2022-10-04T21:50:17.120Z,101103.56
2022-10-04T21:55:20.143Z,101110.53
2022-10-04T22:00:24.646Z,101111.44
2022-10-04T22:05:27.731Z,101117.59
2022-10-04T22:10:31.197Z,101113.34
2022-10-04T22:15:35.897Z,101121.13
2022-10-04T22:20:38.954Z,101132.41
2022-10-04T22:25:41.983Z,101142.91
2022-10-04T22:30:46.800Z,101133.31
2022-10-04T22:35:50.070Z,101144.66
2022-10-04T22:40:53.099Z,101156.84
2022-10-04T22:45:57.715Z,101163.78
2022-10-04T22:51:00.818Z,101167.28
2022-10-04T22:56:03.932Z,101167.31
2022-10-04T23:01:13.470Z,101173.41
2022-10-04T23:06:16.852Z,101173.38
2022-10-04T23:11:19.878Z,101166.47
2022-10-04T23:16:24.467Z,101166.47
2022-10-04T23:21:31.519Z,101162.16
2022-10-04T23:26:37.408Z,101167.34
2022-10-04T23:31:41.913Z,101166.47
2022-10-04T23:36:45.221Z,101164.75
2022-10-04T23:41:48.484Z,101167.38
2022-10-04T23:46:52.980Z,101163.84
2022-10-04T23:51:58.687Z,101158.66
2022-10-04T23:57:01.707Z,101154.34
